sensor_id;sensor_type;location;lat;lon;timestamp;temperature;humidity
29237;DHT22;16266;50.866;4.398;2023-06-04T00:01:25;14.30;62.30
29237;DHT22;16266;50.866;4.398;2023-06-04T00:03:51;14.30;63.50
29237;DHT22;16266;50.866;4.398;2023-06-04T00:06:17;14.10;64.30
29237;DHT22;16266;50.866;4.398;2023-06-04T00:08:42;14.10;64.80
29237;DHT22;16266;50.866;4.398;2023-06-04T00:11:08;14.00;66.00
29237;DHT22;16266;50.866;4.398;2023-06-04T00:13:34;13.90;67.50
29237;DHT22;16266;50.866;4.398;2023-06-04T00:15:59;13.90;68.70
29237;DHT22;16266;50.866;4.398;2023-06-04T00:18:25;13.90;70.00
29237;DHT22;16266;50.866;4.398;2023-06-04T00:20:51;13.80;71.00
29237;DHT22;16266;50.866;4.398;2023-06-04T00:23:16;13.90;72.40
29237;DHT22;16266;50.866;4.398;2023-06-04T00:25:42;13.70;73.50
29237;DHT22;16266;50.866;4.398;2023-06-04T00:28:08;13.70;74.10
29237;DHT22;16266;50.866;4.398;2023-06-04T00:30:33;13.60;76.00
29237;DHT22;16266;50.866;4.398;2023-06-04T00:33:01;13.60;78.00
29237;DHT22;16266;50.866;4.398;2023-06-04T00:35:27;13.70;78.60
29237;DHT22;16266;50.866;4.398;2023-06-04T00:37:52;13.60;79.30
29237;DHT22;16266;50.866;4.398;2023-06-04T00:40:18;13.60;80.60
29237;DHT22;16266;50.866;4.398;2023-06-04T00:42:44;13.60;81.60
29237;DHT22;16266;50.866;4.398;2023-06-04T00:45:10;13.50;84.10
29237;DHT22;16266;50.866;4.398;2023-06-04T00:47:36;13.40;86.00
29237;DHT22;16266;50.866;4.398;2023-06-04T00:50:02;13.30;87.50
29237;DHT22;16266;50.866;4.398;2023-06-04T00:52:28;13.30;88.40
29237;DHT22;16266;50.866;4.398;2023-06-04T00:54:53;13.30;88.80
29237;DHT22;16266;50.866;4.398;2023-06-04T00:57:21;13.30;89.60
29237;DHT22;16266;50.866;4.398;2023-06-04T00:59:48;13.30;90.50
29237;DHT22;16266;50.866;4.398;2023-06-04T01:02:17;13.20;91.20
29237;DHT22;16266;50.866;4.398;2023-06-04T01:04:57;13.20;91.90
29237;DHT22;16266;50.866;4.398;2023-06-04T01:07:26;13.10;92.00
29237;DHT22;16266;50.866;4.398;2023-06-04T01:09:53;13.10;92.50
29237;DHT22;16266;50.866;4.398;2023-06-04T01:12:19;13.10;93.00
29237;DHT22;16266;50.866;4.398;2023-06-04T01:14:45;13.10;93.00
29237;DHT22;16266;50.866;4.398;2023-06-04T01:17:25;13.10;93.30
29237;DHT22;16266;50.866;4.398;2023-06-04T01:25:36;13.00;94.60
29237;DHT22;16266;50.866;4.398;2023-06-04T01:28:10;12.90;95.40
29237;DHT22;16266;50.866;4.398;2023-06-04T01:30:38;12.90;95.90
29237;DHT22;16266;50.866;4.398;2023-06-04T01:33:15;12.90;96.20
29237;DHT22;16266;50.866;4.398;2023-06-04T01:35:41;12.90;96.60
29237;DHT22;16266;50.866;4.398;2023-06-04T01:38:07;12.80;97.20
29237;DHT22;16266;50.866;4.398;2023-06-04T01:40:33;12.70;97.70
29237;DHT22;16266;50.866;4.398;2023-06-04T01:42:58;12.80;97.80
29237;DHT22;16266;50.866;4.398;2023-06-04T01:45:26;12.80;98.20
29237;DHT22;16266;50.866;4.398;2023-06-04T01:47:54;12.70;98.60
29237;DHT22;16266;50.866;4.398;2023-06-04T01:50:20;12.60;99.40
29237;DHT22;16266;50.866;4.398;2023-06-04T01:52:45;12.60;99.90
29237;DHT22;16266;50.866;4.398;2023-06-04T01:55:14;12.60;99.90
29237;DHT22;16266;50.866;4.398;2023-06-04T01:57:43;12.50;99.90
29237;DHT22;16266;50.866;4.398;2023-06-04T02:00:10;12.60;99.90
29237;DHT22;16266;50.866;4.398;2023-06-04T02:02:38;12.50;99.90
29237;DHT22;16266;50.866;4.398;2023-06-04T02:05:04;12.40;99.90
29237;DHT22;16266;50.866;4.398;2023-06-04T02:07:33;12.30;99.90
29237;DHT22;16266;50.866;4.398;2023-06-04T02:10:00;12.30;99.90
29237;DHT22;16266;50.866;4.398;2023-06-04T02:12:25;12.30;99.90
29237;DHT22;16266;50.866;4.398;2023-06-04T02:14:51;12.30;99.90
29237;DHT22;16266;50.866;4.398;2023-06-04T02:17:17;12.30;99.90
29237;DHT22;16266;50.866;4.398;2023-06-04T02:19:43;12.20;99.90
29237;DHT22;16266;50.866;4.398;2023-06-04T02:22:17;12.20;99.90
29237;DHT22;16266;50.866;4.398;2023-06-04T02:24:43;12.20;99.90
29237;DHT22;16266;50.866;4.398;2023-06-04T02:27:09;12.20;99.90
29237;DHT22;16266;50.866;4.398;2023-06-04T02:29:36;12.20;99.90
29237;DHT22;16266;50.866;4.398;2023-06-04T02:32:03;12.20;99.90
29237;DHT22;16266;50.866;4.398;2023-06-04T02:34:28;12.10;99.90
29237;DHT22;16266;50.866;4.398;2023-06-04T02:36:54;12.10;99.90
29237;DHT22;16266;50.866;4.398;2023-06-04T02:39:20;12.10;99.90
29237;DHT22;16266;50.866;4.398;2023-06-04T02:41:46;12.00;99.90
29237;DHT22;16266;50.866;4.398;2023-06-04T02:44:12;11.90;99.90
29237;DHT22;16266;50.866;4.398;2023-06-04T02:46:38;11.90;99.90
29237;DHT22;16266;50.866;4.398;2023-06-04T02:49:04;11.90;99.90
29237;DHT22;16266;50.866;4.398;2023-06-04T02:51:30;11.80;99.90
29237;DHT22;16266;50.866;4.398;2023-06-04T02:53:56;11.80;99.90
29237;DHT22;16266;50.866;4.398;2023-06-04T02:56:22;11.80;99.90
29237;DHT22;16266;50.866;4.398;2023-06-04T02:58:52;11.70;99.90
29237;DHT22;16266;50.866;4.398;2023-06-04T03:01:22;11.70;99.90
29237;DHT22;16266;50.866;4.398;2023-06-04T03:03:48;11.80;99.90
29237;DHT22;16266;50.866;4.398;2023-06-04T03:06:15;11.70;99.90
29237;DHT22;16266;50.866;4.398;2023-06-04T03:08:42;11.80;99.90
29237;DHT22;16266;50.866;4.398;2023-06-04T03:11:08;11.70;99.90
29237;DHT22;16266;50.866;4.398;2023-06-04T03:13:34;11.60;99.90
29237;DHT22;16266;50.866;4.398;2023-06-04T03:16:01;11.60;99.90
29237;DHT22;16266;50.866;4.398;2023-06-04T03:18:28;11.60;99.90
29237;DHT22;16266;50.866;4.398;2023-06-04T03:20:54;11.60;99.90
29237;DHT22;16266;50.866;4.398;2023-06-04T03:23:20;11.60;99.90
29237;DHT22;16266;50.866;4.398;2023-06-04T03:25:47;11.50;99.90
29237;DHT22;16266;50.866;4.398;2023-06-04T03:28:13;11.50;99.90
29237;DHT22;16266;50.866;4.398;2023-06-04T03:30:42;11.50;99.90
29237;DHT22;16266;50.866;4.398;2023-06-04T03:33:07;11.60;99.90
29237;DHT22;16266;50.866;4.398;2023-06-04T03:35:33;11.50;99.90
29237;DHT22;16266;50.866;4.398;2023-06-04T03:37:59;11.50;99.90
29237;DHT22;16266;50.866;4.398;2023-06-04T03:40:25;11.50;99.90
29237;DHT22;16266;50.866;4.398;2023-06-04T03:42:50;11.50;99.90
29237;DHT22;16266;50.866;4.398;2023-06-04T03:45:16;11.60;99.90
29237;DHT22;16266;50.866;4.398;2023-06-04T03:47:42;11.60;99.90
29237;DHT22;16266;50.866;4.398;2023-06-04T03:50:08;11.50;99.90
29237;DHT22;16266;50.866;4.398;2023-06-04T03:52:33;11.50;99.90
29237;DHT22;16266;50.866;4.398;2023-06-04T03:54:59;11.50;99.90
29237;DHT22;16266;50.866;4.398;2023-06-04T03:57:25;11.50;99.90
29237;DHT22;16266;50.866;4.398;2023-06-04T03:59:51;11.70;99.90
29237;DHT22;16266;50.866;4.398;2023-06-04T04:02:17;11.90;99.90
29237;DHT22;16266;50.866;4.398;2023-06-04T04:04:44;12.20;99.90
29237;DHT22;16266;50.866;4.398;2023-06-04T04:07:09;12.40;99.90
29237;DHT22;16266;50.866;4.398;2023-06-04T04:09:36;12.70;99.90
29237;DHT22;16266;50.866;4.398;2023-06-04T04:12:02;13.00;99.90
29237;DHT22;16266;50.866;4.398;2023-06-04T04:14:28;13.30;99.90
29237;DHT22;16266;50.866;4.398;2023-06-04T04:16:53;13.60;99.90
29237;DHT22;16266;50.866;4.398;2023-06-04T04:19:19;13.80;99.90
29237;DHT22;16266;50.866;4.398;2023-06-04T04:21:46;14.10;99.90
29237;DHT22;16266;50.866;4.398;2023-06-04T04:24:26;14.30;99.90
29237;DHT22;16266;50.866;4.398;2023-06-04T04:26:53;14.70;99.90
29237;DHT22;16266;50.866;4.398;2023-06-04T04:29:23;15.20;99.90
29237;DHT22;16266;50.866;4.398;2023-06-04T04:31:53;15.30;99.90
29237;DHT22;16266;50.866;4.398;2023-06-04T04:34:19;15.40;99.90
29237;DHT22;16266;50.866;4.398;2023-06-04T04:36:47;15.50;99.90
29237;DHT22;16266;50.866;4.398;2023-06-04T04:39:22;15.50;99.90
29237;DHT22;16266;50.866;4.398;2023-06-04T04:41:47;15.90;99.90
29237;DHT22;16266;50.866;4.398;2023-06-04T04:44:13;16.00;99.90
29237;DHT22;16266;50.866;4.398;2023-06-04T04:46:39;16.30;99.90
29237;DHT22;16266;50.866;4.398;2023-06-04T04:49:05;16.50;99.90
29237;DHT22;16266;50.866;4.398;2023-06-04T04:51:30;16.50;99.90
29237;DHT22;16266;50.866;4.398;2023-06-04T04:53:58;16.90;99.90
29237;DHT22;16266;50.866;4.398;2023-06-04T04:56:26;17.30;99.90
29237;DHT22;16266;50.866;4.398;2023-06-04T04:58:53;17.90;99.70
29237;DHT22;16266;50.866;4.398;2023-06-04T05:01:19;18.50;97.70
29237;DHT22;16266;50.866;4.398;2023-06-04T05:03:45;18.50;96.30
29237;DHT22;16266;50.866;4.398;2023-06-04T05:06:11;18.40;95.40
29237;DHT22;16266;50.866;4.398;2023-06-04T05:08:36;18.70;94.90
29237;DHT22;16266;50.866;4.398;2023-06-04T05:11:02;18.80;94.20
29237;DHT22;16266;50.866;4.398;2023-06-04T05:13:28;19.10;93.70
29237;DHT22;16266;50.866;4.398;2023-06-04T05:15:53;19.60;92.10
29237;DHT22;16266;50.866;4.398;2023-06-04T05:18:19;19.50;90.60
29237;DHT22;16266;50.866;4.398;2023-06-04T05:20:55;20.20;90.00
29237;DHT22;16266;50.866;4.398;2023-06-04T05:23:20;20.10;86.20
29237;DHT22;16266;50.866;4.398;2023-06-04T05:25:46;20.20;85.80
29237;DHT22;16266;50.866;4.398;2023-06-04T05:28:14;20.70;83.60
29237;DHT22;16266;50.866;4.398;2023-06-04T05:30:40;20.50;82.30
29237;DHT22;16266;50.866;4.398;2023-06-04T05:33:07;20.90;79.20
29237;DHT22;16266;50.866;4.398;2023-06-04T05:35:45;21.40;77.40
29237;DHT22;16266;50.866;4.398;2023-06-04T05:38:10;21.90;74.00
29237;DHT22;16266;50.866;4.398;2023-06-04T05:40:42;22.20;69.90
29237;DHT22;16266;50.866;4.398;2023-06-04T05:43:08;22.00;69.20
29237;DHT22;16266;50.866;4.398;2023-06-04T05:45:34;22.30;69.20
29237;DHT22;16266;50.866;4.398;2023-06-04T05:47:59;22.50;65.50
29237;DHT22;16266;50.866;4.398;2023-06-04T05:50:25;23.00;62.50
29237;DHT22;16266;50.866;4.398;2023-06-04T05:52:51;23.30;59.50
29237;DHT22;16266;50.866;4.398;2023-06-04T05:55:16;23.00;59.60
29237;DHT22;16266;50.866;4.398;2023-06-04T05:57:42;23.20;59.10
29237;DHT22;16266;50.866;4.398;2023-06-04T06:00:08;24.20;55.80
29237;DHT22;16266;50.866;4.398;2023-06-04T06:02:36;24.90;53.20
29237;DHT22;16266;50.866;4.398;2023-06-04T06:05:03;25.20;49.90
29237;DHT22;16266;50.866;4.398;2023-06-04T06:07:28;25.60;49.10
29237;DHT22;16266;50.866;4.398;2023-06-04T06:09:54;25.40;46.40
29237;DHT22;16266;50.866;4.398;2023-06-04T06:12:19;25.80;45.60
29237;DHT22;16266;50.866;4.398;2023-06-04T06:14:45;26.50;43.40
29237;DHT22;16266;50.866;4.398;2023-06-04T06:17:11;26.20;41.70
29237;DHT22;16266;50.866;4.398;2023-06-04T06:19:36;26.50;40.90
29237;DHT22;16266;50.866;4.398;2023-06-04T06:22:03;26.30;40.00
29237;DHT22;16266;50.866;4.398;2023-06-04T06:24:29;25.50;40.10
29237;DHT22;16266;50.866;4.398;2023-06-04T06:26:55;25.30;41.00
29237;DHT22;16266;50.866;4.398;2023-06-04T06:29:20;25.40;41.00
29237;DHT22;16266;50.866;4.398;2023-06-04T06:31:46;25.60;39.50
29237;DHT22;16266;50.866;4.398;2023-06-04T06:34:12;26.00;38.20
29237;DHT22;16266;50.866;4.398;2023-06-04T06:36:38;27.00;36.70
29237;DHT22;16266;50.866;4.398;2023-06-04T06:39:04;27.20;34.30
29237;DHT22;16266;50.866;4.398;2023-06-04T06:41:30;27.10;34.90
29237;DHT22;16266;50.866;4.398;2023-06-04T06:43:57;27.80;34.10
29237;DHT22;16266;50.866;4.398;2023-06-04T06:46:23;28.40;31.70
29237;DHT22;16266;50.866;4.398;2023-06-04T06:48:48;28.40;30.10
29237;DHT22;16266;50.866;4.398;2023-06-04T06:51:14;28.60;29.50
29237;DHT22;16266;50.866;4.398;2023-06-04T06:53:40;27.60;29.20
29237;DHT22;16266;50.866;4.398;2023-06-04T06:56:06;27.80;29.00
29237;DHT22;16266;50.866;4.398;2023-06-04T06:58:32;27.70;28.10
29237;DHT22;16266;50.866;4.398;2023-06-04T07:00:58;27.80;28.60
29237;DHT22;16266;50.866;4.398;2023-06-04T07:03:23;28.10;28.00
29237;DHT22;16266;50.866;4.398;2023-06-04T07:05:49;27.90;27.00
29237;DHT22;16266;50.866;4.398;2023-06-04T07:08:14;27.40;28.10
29237;DHT22;16266;50.866;4.398;2023-06-04T07:10:40;27.60;27.20
29237;DHT22;16266;50.866;4.398;2023-06-04T07:13:06;27.80;26.90
29237;DHT22;16266;50.866;4.398;2023-06-04T07:15:31;27.80;27.00
29237;DHT22;16266;50.866;4.398;2023-06-04T07:17:57;28.20;26.30
29237;DHT22;16266;50.866;4.398;2023-06-04T07:20:23;28.30;25.90
29237;DHT22;16266;50.866;4.398;2023-06-04T07:22:48;28.70;25.00
29237;DHT22;16266;50.866;4.398;2023-06-04T07:25:14;28.80;24.60
29237;DHT22;16266;50.866;4.398;2023-06-04T07:27:39;29.10;24.40
29237;DHT22;16266;50.866;4.398;2023-06-04T07:30:06;28.50;24.60
29237;DHT22;16266;50.866;4.398;2023-06-04T07:32:33;28.70;24.30
29237;DHT22;16266;50.866;4.398;2023-06-04T07:34:58;29.10;23.10
29237;DHT22;16266;50.866;4.398;2023-06-04T07:37:24;29.20;22.80
29237;DHT22;16266;50.866;4.398;2023-06-04T07:39:50;29.00;22.20
29237;DHT22;16266;50.866;4.398;2023-06-04T07:42:15;29.50;21.70
29237;DHT22;16266;50.866;4.398;2023-06-04T07:44:41;30.10;21.00
29237;DHT22;16266;50.866;4.398;2023-06-04T07:47:07;30.80;20.20
29237;DHT22;16266;50.866;4.398;2023-06-04T07:49:32;31.10;19.50
29237;DHT22;16266;50.866;4.398;2023-06-04T07:51:58;31.60;18.50
29237;DHT22;16266;50.866;4.398;2023-06-04T07:54:24;31.20;18.60
29237;DHT22;16266;50.866;4.398;2023-06-04T07:56:49;31.80;18.70
29237;DHT22;16266;50.866;4.398;2023-06-04T07:59:23;31.80;17.80
29237;DHT22;16266;50.866;4.398;2023-06-04T08:01:50;33.00;17.00
29237;DHT22;16266;50.866;4.398;2023-06-04T08:04:19;33.50;15.40
29237;DHT22;16266;50.866;4.398;2023-06-04T08:06:44;33.10;14.60
29237;DHT22;16266;50.866;4.398;2023-06-04T08:09:10;32.80;14.80
29237;DHT22;16266;50.866;4.398;2023-06-04T08:11:37;32.10;15.40
29237;DHT22;16266;50.866;4.398;2023-06-04T08:14:02;32.80;14.90
29237;DHT22;16266;50.866;4.398;2023-06-04T08:16:28;34.00;14.10
29237;DHT22;16266;50.866;4.398;2023-06-04T08:18:54;34.30;13.50
29237;DHT22;16266;50.866;4.398;2023-06-04T08:21:26;34.10;12.70
29237;DHT22;16266;50.866;4.398;2023-06-04T08:23:52;34.20;12.40
29237;DHT22;16266;50.866;4.398;2023-06-04T08:26:19;33.10;12.40
29237;DHT22;16266;50.866;4.398;2023-06-04T08:28:48;32.90;12.80
29237;DHT22;16266;50.866;4.398;2023-06-04T08:31:14;32.90;12.50
29237;DHT22;16266;50.866;4.398;2023-06-04T08:33:40;32.70;11.70
29237;DHT22;16266;50.866;4.398;2023-06-04T08:36:06;33.40;11.80
29237;DHT22;16266;50.866;4.398;2023-06-04T08:38:32;32.80;11.30
29237;DHT22;16266;50.866;4.398;2023-06-04T08:41:06;32.20;11.50
29237;DHT22;16266;50.866;4.398;2023-06-04T08:43:35;31.30;12.60
29237;DHT22;16266;50.866;4.398;2023-06-04T08:46:03;31.00;12.60
29237;DHT22;16266;50.866;4.398;2023-06-04T08:48:34;31.10;12.90
29237;DHT22;16266;50.866;4.398;2023-06-04T08:51:02;31.80;12.70
29237;DHT22;16266;50.866;4.398;2023-06-04T08:53:31;32.00;12.80
29237;DHT22;16266;50.866;4.398;2023-06-04T08:55:57;31.70;12.00
29237;DHT22;16266;50.866;4.398;2023-06-04T08:58:23;32.60;12.00
29237;DHT22;16266;50.866;4.398;2023-06-04T09:00:50;32.70;11.00
29237;DHT22;16266;50.866;4.398;2023-06-04T09:03:16;31.90;10.80
29237;DHT22;16266;50.866;4.398;2023-06-04T09:05:44;31.40;12.00
29237;DHT22;16266;50.866;4.398;2023-06-04T09:08:14;31.10;12.00
29237;DHT22;16266;50.866;4.398;2023-06-04T09:10:44;31.90;11.70
29237;DHT22;16266;50.866;4.398;2023-06-04T09:13:13;32.70;11.20
29237;DHT22;16266;50.866;4.398;2023-06-04T09:15:40;32.80;10.60
29237;DHT22;16266;50.866;4.398;2023-06-04T09:18:06;32.30;10.70
29237;DHT22;16266;50.866;4.398;2023-06-04T09:20:32;31.60;11.00
29237;DHT22;16266;50.866;4.398;2023-06-04T09:22:58;31.30;11.60
29237;DHT22;16266;50.866;4.398;2023-06-04T09:25:27;31.70;11.80
29237;DHT22;16266;50.866;4.398;2023-06-04T09:27:54;32.30;11.60
29237;DHT22;16266;50.866;4.398;2023-06-04T09:30:21;32.70;11.10
29237;DHT22;16266;50.866;4.398;2023-06-04T09:32:47;32.60;10.00
29237;DHT22;16266;50.866;4.398;2023-06-04T09:35:17;32.50;10.70
29237;DHT22;16266;50.866;4.398;2023-06-04T09:37:53;32.10;10.20
29237;DHT22;16266;50.866;4.398;2023-06-04T09:40:19;31.90;10.20
29237;DHT22;16266;50.866;4.398;2023-06-04T09:42:46;33.10;10.20
29237;DHT22;16266;50.866;4.398;2023-06-04T09:45:25;33.30;9.70
29237;DHT22;16266;50.866;4.398;2023-06-04T09:47:51;33.30;9.10
29237;DHT22;16266;50.866;4.398;2023-06-04T09:50:29;32.30;9.20
29237;DHT22;16266;50.866;4.398;2023-06-04T09:52:55;33.10;9.60
29237;DHT22;16266;50.866;4.398;2023-06-04T09:55:22;33.30;9.00
29237;DHT22;16266;50.866;4.398;2023-06-04T09:57:49;33.10;9.30
29237;DHT22;16266;50.866;4.398;2023-06-04T10:00:19;33.50;8.50
29237;DHT22;16266;50.866;4.398;2023-06-04T10:02:49;33.50;8.40
29237;DHT22;16266;50.866;4.398;2023-06-04T10:05:16;33.90;8.00
29237;DHT22;16266;50.866;4.398;2023-06-04T10:07:45;34.20;8.30
29237;DHT22;16266;50.866;4.398;2023-06-04T10:10:15;35.00;8.10
29237;DHT22;16266;50.866;4.398;2023-06-04T10:12:42;35.80;8.00
29237;DHT22;16266;50.866;4.398;2023-06-04T10:15:12;35.40;7.30
29237;DHT22;16266;50.866;4.398;2023-06-04T10:17:39;34.80;7.10
29237;DHT22;16266;50.866;4.398;2023-06-04T10:20:07;35.20;7.30
29237;DHT22;16266;50.866;4.398;2023-06-04T10:22:35;35.60;7.50
29237;DHT22;16266;50.866;4.398;2023-06-04T10:25:01;34.10;7.60
29237;DHT22;16266;50.866;4.398;2023-06-04T10:27:30;35.40;7.50
29237;DHT22;16266;50.866;4.398;2023-06-04T10:29:57;36.10;6.50
29237;DHT22;16266;50.866;4.398;2023-06-04T10:32:22;37.20;6.00
29237;DHT22;16266;50.866;4.398;2023-06-04T10:34:51;37.60;5.80
29237;DHT22;16266;50.866;4.398;2023-06-04T10:37:24;36.50;5.50
29237;DHT22;16266;50.866;4.398;2023-06-04T10:39:57;35.70;5.40
29237;DHT22;16266;50.866;4.398;2023-06-04T10:42:24;35.20;6.20
29237;DHT22;16266;50.866;4.398;2023-06-04T10:44:54;34.00;7.20
29237;DHT22;16266;50.866;4.398;2023-06-04T10:47:27;35.10;6.50
29237;DHT22;16266;50.866;4.398;2023-06-04T10:50:13;37.00;6.50
29237;DHT22;16266;50.866;4.398;2023-06-04T10:52:51;37.20;5.70
29237;DHT22;16266;50.866;4.398;2023-06-04T10:55:16;35.00;6.10
29237;DHT22;16266;50.866;4.398;2023-06-04T10:57:55;34.80;7.00
29237;DHT22;16266;50.866;4.398;2023-06-04T11:00:21;34.40;6.80
29237;DHT22;16266;50.866;4.398;2023-06-04T11:03:06;34.60;6.10
29237;DHT22;16266;50.866;4.398;2023-06-04T11:05:40;34.00;7.00
29237;DHT22;16266;50.866;4.398;2023-06-04T11:08:06;33.90;6.50
29237;DHT22;16266;50.866;4.398;2023-06-04T11:10:38;35.30;6.40
29237;DHT22;16266;50.866;4.398;2023-06-04T11:13:04;36.10;5.40
29237;DHT22;16266;50.866;4.398;2023-06-04T11:15:46;36.00;4.50
29237;DHT22;16266;50.866;4.398;2023-06-04T11:18:18;34.80;5.20
29237;DHT22;16266;50.866;4.398;2023-06-04T11:20:44;35.40;4.90
29237;DHT22;16266;50.866;4.398;2023-06-04T11:23:12;34.30;5.80
29237;DHT22;16266;50.866;4.398;2023-06-04T11:25:38;33.60;5.90
29237;DHT22;16266;50.866;4.398;2023-06-04T11:28:04;34.70;5.90
29237;DHT22;16266;50.866;4.398;2023-06-04T11:30:30;36.20;5.10
29237;DHT22;16266;50.866;4.398;2023-06-04T11:33:03;36.50;4.30
29237;DHT22;16266;50.866;4.398;2023-06-04T11:35:29;36.00;4.50
29237;DHT22;16266;50.866;4.398;2023-06-04T11:37:56;34.50;5.40
29237;DHT22;16266;50.866;4.398;2023-06-04T11:40:22;35.00;5.60
29237;DHT22;16266;50.866;4.398;2023-06-04T11:42:49;36.00;5.10
29237;DHT22;16266;50.866;4.398;2023-06-04T11:45:16;35.70;5.20
29237;DHT22;16266;50.866;4.398;2023-06-04T11:47:56;36.60;4.20
29237;DHT22;16266;50.866;4.398;2023-06-04T11:50:26;35.50;4.60
29237;DHT22;16266;50.866;4.398;2023-06-04T11:52:53;34.60;5.10
29237;DHT22;16266;50.866;4.398;2023-06-04T11:55:19;34.30;5.40
29237;DHT22;16266;50.866;4.398;2023-06-04T11:57:48;34.70;4.70
29237;DHT22;16266;50.866;4.398;2023-06-04T12:00:15;35.50;4.40
29237;DHT22;16266;50.866;4.398;2023-06-04T12:02:50;35.30;4.60
29237;DHT22;16266;50.866;4.398;2023-06-04T12:05:17;35.60;4.50
29237;DHT22;16266;50.866;4.398;2023-06-04T12:07:50;34.90;4.40
29237;DHT22;16266;50.866;4.398;2023-06-04T12:10:20;35.10;4.20
29237;DHT22;16266;50.866;4.398;2023-06-04T12:12:46;35.50;4.20
29237;DHT22;16266;50.866;4.398;2023-06-04T12:15:19;35.90;3.90
29237;DHT22;16266;50.866;4.398;2023-06-04T12:17:52;35.10;4.10
29237;DHT22;16266;50.866;4.398;2023-06-04T12:20:39;34.00;4.80
29237;DHT22;16266;50.866;4.398;2023-06-04T12:23:06;33.60;5.30
29237;DHT22;16266;50.866;4.398;2023-06-04T12:25:33;34.40;4.90
29237;DHT22;16266;50.866;4.398;2023-06-04T12:27:59;35.20;4.60
29237;DHT22;16266;50.866;4.398;2023-06-04T12:30:41;35.80;4.30
29237;DHT22;16266;50.866;4.398;2023-06-04T12:33:06;34.60;4.40
29237;DHT22;16266;50.866;4.398;2023-06-04T12:35:33;33.90;4.50
29237;DHT22;16266;50.866;4.398;2023-06-04T12:37:59;34.20;5.00
29237;DHT22;16266;50.866;4.398;2023-06-04T12:40:25;35.10;4.60
29237;DHT22;16266;50.866;4.398;2023-06-04T12:42:51;34.70;4.10
29237;DHT22;16266;50.866;4.398;2023-06-04T12:45:17;34.70;4.00
29237;DHT22;16266;50.866;4.398;2023-06-04T12:47:43;34.30;4.80
29237;DHT22;16266;50.866;4.398;2023-06-04T12:50:09;33.80;4.60
29237;DHT22;16266;50.866;4.398;2023-06-04T12:52:34;33.30;4.90
29237;DHT22;16266;50.866;4.398;2023-06-04T12:55:00;32.50;5.40
29237;DHT22;16266;50.866;4.398;2023-06-04T12:57:26;32.30;6.00
29237;DHT22;16266;50.866;4.398;2023-06-04T12:59:51;33.20;5.90
29237;DHT22;16266;50.866;4.398;2023-06-04T13:02:17;33.60;5.20
29237;DHT22;16266;50.866;4.398;2023-06-04T13:04:43;33.30;5.30
29237;DHT22;16266;50.866;4.398;2023-06-04T13:07:11;33.20;5.00
29237;DHT22;16266;50.866;4.398;2023-06-04T13:09:37;32.50;4.50
29237;DHT22;16266;50.866;4.398;2023-06-04T13:12:03;31.50;5.70
29237;DHT22;16266;50.866;4.398;2023-06-04T13:14:30;31.40;6.10
29237;DHT22;16266;50.866;4.398;2023-06-04T13:16:58;31.00;6.40
29237;DHT22;16266;50.866;4.398;2023-06-04T13:19:24;30.80;6.80
29237;DHT22;16266;50.866;4.398;2023-06-04T13:21:50;30.80;6.90
29237;DHT22;16266;50.866;4.398;2023-06-04T13:24:16;30.70;6.80
29237;DHT22;16266;50.866;4.398;2023-06-04T13:26:41;31.20;6.60
29237;DHT22;16266;50.866;4.398;2023-06-04T13:29:07;30.80;6.20
29237;DHT22;16266;50.866;4.398;2023-06-04T13:31:33;30.50;6.50
29237;DHT22;16266;50.866;4.398;2023-06-04T13:33:58;30.70;6.60
29237;DHT22;16266;50.866;4.398;2023-06-04T13:36:24;30.40;7.10
29237;DHT22;16266;50.866;4.398;2023-06-04T13:38:50;30.20;6.50
29237;DHT22;16266;50.866;4.398;2023-06-04T13:41:18;30.50;6.50
29237;DHT22;16266;50.866;4.398;2023-06-04T13:43:43;31.60;6.70
29237;DHT22;16266;50.866;4.398;2023-06-04T13:46:09;31.20;6.50
29237;DHT22;16266;50.866;4.398;2023-06-04T13:48:35;30.60;6.90
29237;DHT22;16266;50.866;4.398;2023-06-04T13:51:00;30.50;7.30
29237;DHT22;16266;50.866;4.398;2023-06-04T13:53:26;29.90;7.40
29237;DHT22;16266;50.866;4.398;2023-06-04T13:55:52;30.10;7.50
29237;DHT22;16266;50.866;4.398;2023-06-04T13:58:23;29.90;6.90
29237;DHT22;16266;50.866;4.398;2023-06-04T14:00:49;30.10;6.80
29237;DHT22;16266;50.866;4.398;2023-06-04T14:03:15;30.00;6.80
29237;DHT22;16266;50.866;4.398;2023-06-04T14:05:41;29.60;7.10
29237;DHT22;16266;50.866;4.398;2023-06-04T14:08:06;29.20;7.20
29237;DHT22;16266;50.866;4.398;2023-06-04T14:10:32;29.30;7.60
29237;DHT22;16266;50.866;4.398;2023-06-04T14:12:58;29.50;7.40
29237;DHT22;16266;50.866;4.398;2023-06-04T14:15:26;29.30;7.80
29237;DHT22;16266;50.866;4.398;2023-06-04T14:17:51;29.00;8.10
29237;DHT22;16266;50.866;4.398;2023-06-04T14:20:17;28.80;8.10
29237;DHT22;16266;50.866;4.398;2023-06-04T14:22:42;28.80;8.10
29237;DHT22;16266;50.866;4.398;2023-06-04T14:25:08;28.90;7.80
29237;DHT22;16266;50.866;4.398;2023-06-04T14:27:35;28.80;7.10
29237;DHT22;16266;50.866;4.398;2023-06-04T14:30:02;28.50;7.50
29237;DHT22;16266;50.866;4.398;2023-06-04T14:32:28;27.90;7.90
29237;DHT22;16266;50.866;4.398;2023-06-04T14:34:53;27.30;8.60
29237;DHT22;16266;50.866;4.398;2023-06-04T14:37:20;27.10;8.20
29237;DHT22;16266;50.866;4.398;2023-06-04T14:39:46;27.30;8.70
29237;DHT22;16266;50.866;4.398;2023-06-04T14:42:13;27.10;8.60
29237;DHT22;16266;50.866;4.398;2023-06-04T14:44:38;26.90;8.80
29237;DHT22;16266;50.866;4.398;2023-06-04T14:47:04;26.90;8.70
29237;DHT22;16266;50.866;4.398;2023-06-04T14:49:30;26.80;8.80
29237;DHT22;16266;50.866;4.398;2023-06-04T14:51:56;26.50;9.10
29237;DHT22;16266;50.866;4.398;2023-06-04T14:54:21;26.40;9.00
29237;DHT22;16266;50.866;4.398;2023-06-04T14:56:47;26.40;9.50
29237;DHT22;16266;50.866;4.398;2023-06-04T14:59:13;26.50;10.20
29237;DHT22;16266;50.866;4.398;2023-06-04T15:01:39;26.60;9.70
29237;DHT22;16266;50.866;4.398;2023-06-04T15:04:06;26.50;10.00
29237;DHT22;16266;50.866;4.398;2023-06-04T15:06:32;26.40;10.30
29237;DHT22;16266;50.866;4.398;2023-06-04T15:08:58;26.00;9.90
29237;DHT22;16266;50.866;4.398;2023-06-04T15:11:23;26.00;9.80
29237;DHT22;16266;50.866;4.398;2023-06-04T15:13:49;25.90;10.10
29237;DHT22;16266;50.866;4.398;2023-06-04T15:16:15;25.80;10.20
29237;DHT22;16266;50.866;4.398;2023-06-04T15:18:40;25.60;9.60
29237;DHT22;16266;50.866;4.398;2023-06-04T15:21:06;25.60;10.00
29237;DHT22;16266;50.866;4.398;2023-06-04T15:23:31;25.50;9.90
29237;DHT22;16266;50.866;4.398;2023-06-04T15:25:57;25.50;10.30
29237;DHT22;16266;50.866;4.398;2023-06-04T15:28:23;25.40;10.30
29237;DHT22;16266;50.866;4.398;2023-06-04T15:30:48;25.30;10.50
29237;DHT22;16266;50.866;4.398;2023-06-04T15:33:14;25.20;10.50
29237;DHT22;16266;50.866;4.398;2023-06-04T15:35:41;25.10;10.30
29237;DHT22;16266;50.866;4.398;2023-06-04T15:38:07;25.00;10.90
29237;DHT22;16266;50.866;4.398;2023-06-04T15:40:33;25.00;10.90